createdAt,value
2022-10-05T00:01:24.410Z,101600.59
2022-10-05T00:04:01.320Z,101601.59
2022-10-05T00:06:32.574Z,101600.88
2022-10-05T00:09:03.633Z,101590.28
2022-10-05T00:11:35.517Z,101583.22
2022-10-05T00:14:09.124Z,101600.00
2022-10-05T00:16:41.624Z,101600.00
2022-10-05T00:19:20.502Z,101596.44
2022-10-05T00:21:50.842Z,101605.22
2022-10-05T00:24:22.282Z,101610.53
2022-10-05T00:26:57.812Z,101594.59
2022-10-05T00:29:28.394Z,101590.13
2022-10-05T00:31:58.770Z,101583.94
2022-10-05T00:34:28.864Z,101571.59
2022-10-05T00:36:59.991Z,101574.22
2022-10-05T00:39:30.372Z,101574.22
2022-10-05T00:42:23.134Z,101575.97
2022-10-05T00:44:58.405Z,101576.81
2022-10-05T00:47:43.764Z,101570.66
2022-10-05T00:50:49.032Z,101573.25
2022-10-05T00:53:32.697Z,101568.84
2022-10-05T00:56:11.075Z,101566.13
2022-10-05T00:58:56.952Z,101568.75
2022-10-05T01:01:34.585Z,101567.84
2022-10-05T01:04:13.102Z,101566.91
2022-10-05T01:06:53.404Z,101560.75
2022-10-05T01:09:39.322Z,101557.22
2022-10-05T01:12:21.402Z,101558.97
2022-10-05T01:15:01.571Z,101554.53
2022-10-05T01:17:43.331Z,101545.75
2022-10-05T01:20:45.063Z,101531.63
2022-10-05T01:23:47.584Z,101528.19
2022-10-05T01:26:33.175Z,101515.94
2022-10-05T01:29:11.852Z,101520.34
2022-10-05T01:31:50.103Z,101512.50
2022-10-05T01:34:28.837Z,101511.69
2022-10-05T01:37:08.471Z,101531.13
2022-10-05T01:39:47.203Z,101528.50
2022-10-05T01:42:29.924Z,101530.25
2022-10-05T01:45:10.342Z,101527.66
2022-10-05T01:47:47.353Z,101534.72
2022-10-05T01:50:29.146Z,101538.25
2022-10-05T01:53:07.723Z,101532.06
2022-10-05T01:55:43.553Z,101532.91
2022-10-05T01:58:22.112Z,101538.25
2022-10-05T02:01:02.040Z,101527.59
2022-10-05T02:03:40.291Z,101525.84
2022-10-05T02:06:16.776Z,101531.13
2022-10-05T02:08:54.242Z,101526.75
2022-10-05T02:11:24.373Z,101524.06
2022-10-05T02:14:00.325Z,101521.47
2022-10-05T02:16:44.351Z,101516.16
2022-10-05T02:19:20.520Z,101518.78
2022-10-05T02:21:55.171Z,101520.53
2022-10-05T02:24:40.121Z,101524.97
2022-10-05T02:27:12.542Z,101517.88
2022-10-05T02:29:50.663Z,101509.88
2022-10-05T02:32:25.665Z,101502.78
2022-10-05T02:35:03.545Z,101486.84
2022-10-05T02:37:45.074Z,101481.53
2022-10-05T02:40:25.264Z,101483.25
2022-10-05T02:43:08.674Z,101486.78
2022-10-05T02:45:51.807Z,101476.16
2022-10-05T02:48:32.954Z,101469.09
2022-10-05T02:51:12.302Z,101462.00
2022-10-05T02:53:56.923Z,101465.50
2022-10-05T02:56:38.344Z,101466.38
2022-10-05T02:59:15.253Z,101466.41
2022-10-05T03:01:51.983Z,101463.75
2022-10-05T03:04:39.187Z,101468.13
2022-10-05T03:07:17.093Z,101461.06
2022-10-05T03:10:01.126Z,101457.50
2022-10-05T03:12:50.983Z,101452.22
2022-10-05T03:15:41.242Z,101445.13
2022-10-05T03:18:21.554Z,101446.00
2022-10-05T03:21:02.983Z,101453.03
2022-10-05T03:23:45.842Z,101460.06
2022-10-05T03:26:37.322Z,101461.84
2022-10-05T03:29:21.893Z,101455.63
2022-10-05T03:32:00.124Z,101449.44
2022-10-05T03:34:44.683Z,101459.16
2022-10-05T03:37:24.105Z,101459.16
2022-10-05T03:40:02.066Z,101454.69
2022-10-05T03:42:39.960Z,101448.53
2022-10-05T03:45:35.103Z,101438.81
2022-10-05T03:48:10.243Z,101438.81
2022-10-05T03:50:49.075Z,101447.59
2022-10-05T03:53:23.772Z,101438.78
2022-10-05T03:56:00.373Z,101444.94
2022-10-05T03:58:40.961Z,101444.91
2022-10-05T04:01:16.314Z,101453.72
2022-10-05T04:03:49.871Z,101451.94
2022-10-05T04:06:25.697Z,101452.75
2022-10-05T04:09:03.931Z,101444.78
2022-10-05T04:11:41.361Z,101424.47
2022-10-05T04:14:16.672Z,101431.56
2022-10-05T04:16:50.074Z,101423.56
2022-10-05T04:19:24.652Z,101425.28
2022-10-05T04:22:06.177Z,101423.41
2022-10-05T04:24:43.584Z,101431.31
2022-10-05T04:27:17.942Z,101437.44
2022-10-05T04:29:55.657Z,101424.16
2022-10-05T04:32:37.713Z,101424.22
2022-10-05T04:35:31.655Z,101427.69
2022-10-05T04:38:17.584Z,101427.66
2022-10-05T04:41:09.793Z,101429.38
2022-10-05T04:43:51.384Z,101432.94
2022-10-05T04:46:37.010Z,101432.91
2022-10-05T04:49:37.955Z,101418.81
2022-10-05T04:52:19.531Z,101418.88
2022-10-05T04:55:04.295Z,101417.16
2022-10-05T04:57:43.502Z,101407.47
2022-10-05T05:00:25.441Z,101400.56
2022-10-05T05:03:21.928Z,101377.69
2022-10-05T05:06:17.940Z,101369.88
2022-10-05T05:09:15.234Z,101364.84
2022-10-05T05:12:04.184Z,101373.78
2022-10-05T05:17:57.424Z,101355.44
2022-10-05T05:20:40.429Z,101366.94
2022-10-05T05:23:21.943Z,101374.88
2022-10-05T05:26:08.895Z,101372.28
2022-10-05T05:28:55.592Z,101369.66
2022-10-05T05:31:38.438Z,101382.91
2022-10-05T05:34:22.783Z,101381.16
2022-10-05T05:37:02.761Z,101382.03
2022-10-05T05:39:50.073Z,101374.13
2022-10-05T05:42:37.243Z,101394.44
2022-10-05T05:45:17.978Z,101405.94
2022-10-05T05:47:54.587Z,101395.34
2022-10-05T05:50:43.407Z,101395.34
2022-10-05T05:53:20.605Z,101388.25
2022-10-05T05:55:56.623Z,101380.31
2022-10-05T05:58:34.241Z,101388.28
2022-10-05T06:01:30.658Z,101387.41
2022-10-05T06:04:09.005Z,101386.50
2022-10-05T06:06:46.341Z,101388.25
2022-10-05T06:09:24.626Z,101392.66
2022-10-05T06:12:12.423Z,101405.91
2022-10-05T06:14:48.805Z,101391.75
2022-10-05T06:17:26.611Z,101382.88
2022-10-05T06:20:04.686Z,101393.47
2022-10-05T06:22:42.483Z,101398.75
2022-10-05T06:25:26.952Z,101386.38
2022-10-05T06:28:11.041Z,101388.13
2022-10-05T06:31:14.665Z,101373.06
2022-10-05T06:33:52.933Z,101376.59
2022-10-05T06:36:42.592Z,101388.09
2022-10-05T06:39:44.764Z,101382.75
2022-10-05T06:42:45.803Z,101377.44
2022-10-05T06:45:45.805Z,101380.91
2022-10-05T06:49:04.564Z,101388.88
2022-10-05T06:52:05.628Z,101393.28
2022-10-05T06:54:54.097Z,101396.84
2022-10-05T06:57:47.377Z,101395.94
2022-10-05T07:00:22.006Z,101394.19
2022-10-05T07:02:59.811Z,101381.72
2022-10-05T07:05:46.997Z,101374.56
2022-10-05T07:08:26.056Z,101389.66
2022-10-05T07:14:11.854Z,101410.81
2022-10-05T07:17:01.870Z,101401.91
2022-10-05T07:19:43.353Z,101407.13
2022-10-05T07:22:43.785Z,101396.31
2022-10-05T07:25:22.361Z,101387.38
2022-10-05T07:27:59.555Z,101393.59
2022-10-05T07:30:33.717Z,101403.41
2022-10-05T07:33:14.689Z,101412.25
2022-10-05T07:36:09.973Z,101409.59
2022-10-05T07:38:46.739Z,101398.09
2022-10-05T07:41:24.390Z,101389.28
2022-10-05T07:44:03.161Z,101378.63
2022-10-05T07:46:57.079Z,101373.31
2022-10-05T07:49:43.125Z,101376.91
2022-10-05T07:52:18.675Z,101383.97
2022-10-05T07:54:58.934Z,101381.31
2022-10-05T07:57:41.367Z,101375.09
2022-10-05T08:00:20.812Z,101381.31
2022-10-05T08:02:58.622Z,101370.63
2022-10-05T08:05:33.216Z,101377.72
2022-10-05T08:08:16.687Z,101367.94
2022-10-05T08:10:56.869Z,101362.53
2022-10-05T08:13:35.385Z,101363.31
2022-10-05T08:16:12.920Z,101358.84
2022-10-05T08:18:57.138Z,101352.56
2022-10-05T08:21:33.765Z,101362.28
2022-10-05T08:24:14.882Z,101368.47
2022-10-05T08:26:53.592Z,101373.81
2022-10-05T08:29:29.058Z,101379.06
2022-10-05T08:32:03.693Z,101377.25
2022-10-05T08:34:43.125Z,101386.78
2022-10-05T08:37:19.055Z,101390.22
2022-10-05T08:39:56.806Z,101394.56
2022-10-05T08:43:03.338Z,101385.59
2022-10-05T08:46:04.451Z,101388.22
2022-10-05T08:49:06.112Z,101397.84
2022-10-05T08:52:01.072Z,101404.88
2022-10-05T08:55:05.132Z,101407.47
2022-10-05T08:58:20.834Z,101417.13
2022-10-05T09:01:01.315Z,101410.69
2022-10-05T09:04:08.625Z,101407.03
2022-10-05T09:07:15.280Z,101397.78
2022-10-05T09:10:29.195Z,101398.63
2022-10-05T09:13:21.114Z,101383.47
2022-10-05T09:16:15.504Z,101372.75
2022-10-05T09:19:13.094Z,101364.56
2022-10-05T09:21:45.059Z,101364.50
2022-10-05T09:24:29.006Z,101368.22
2022-10-05T09:27:11.821Z,101363.91
2022-10-05T09:30:14.616Z,101367.41
2022-10-05T09:33:13.773Z,101360.28
2022-10-05T09:36:14.112Z,101369.25
2022-10-05T09:39:20.585Z,101366.50
2022-10-05T09:42:11.279Z,101375.16
2022-10-05T09:45:12.120Z,101379.31
2022-10-05T09:48:02.821Z,101375.66
2022-10-05T09:51:08.086Z,101369.53
2022-10-05T09:54:22.771Z,101383.56
2022-10-05T09:57:42.782Z,101367.53
2022-10-05T10:00:29.893Z,101380.56
2022-10-05T10:03:27.899Z,101376.59
2022-10-05T10:06:29.662Z,101383.50
2022-10-05T10:09:25.532Z,101391.31
2022-10-05T10:12:31.876Z,101383.28
2022-10-05T10:15:40.484Z,101381.50
2022-10-05T10:18:42.665Z,101373.38
2022-10-05T10:21:38.352Z,101370.84
2022-10-05T10:24:23.312Z,101369.22
2022-10-05T10:27:35.307Z,101364.81
2022-10-05T10:30:38.901Z,101362.16
2022-10-05T10:33:37.701Z,101364.56
2022-10-05T10:36:15.722Z,101369.00
2022-10-05T10:39:00.334Z,101366.16
2022-10-05T10:42:00.100Z,101369.59
2022-10-05T10:45:06.774Z,101362.84
2022-10-05T10:47:48.435Z,101361.16
2022-10-05T10:50:45.406Z,101353.06
2022-10-05T10:53:31.235Z,101344.88
2022-10-05T10:56:30.693Z,101351.03
2022-10-05T10:59:53.252Z,101341.97
2022-10-05T11:02:53.395Z,101352.66
2022-10-05T11:05:55.258Z,101344.41
2022-10-05T11:09:02.000Z,101337.25
2022-10-05T11:12:10.054Z,101339.72
2022-10-05T11:15:18.765Z,101339.56
2022-10-05T11:18:07.304Z,101343.13
2022-10-05T11:21:16.132Z,101345.75
2022-10-05T11:24:27.862Z,101339.38
2022-10-05T11:30:41.013Z,101349.31
2022-10-05T11:33:39.244Z,101343.28
2022-10-05T11:36:42.583Z,101351.31
2022-10-05T11:39:39.094Z,101346.28
2022-10-05T11:42:40.215Z,101336.63
2022-10-05T11:45:38.494Z,101328.56
2022-10-05T11:48:44.445Z,101324.09
2022-10-05T11:51:47.462Z,101333.22
2022-10-05T11:55:09.806Z,101338.34
2022-10-05T11:57:50.199Z,101329.22
2022-10-05T12:00:22.519Z,101325.81
2022-10-05T12:03:24.881Z,101331.94
2022-10-05T12:06:08.741Z,101319.97
2022-10-05T12:08:50.425Z,101322.44
2022-10-05T12:11:48.324Z,101326.56
2022-10-05T12:14:33.833Z,101331.25
2022-10-05T12:17:12.222Z,101324.25
2022-10-05T12:19:47.354Z,101324.38
2022-10-05T12:22:23.113Z,101322.59
2022-10-05T12:25:04.971Z,101327.91
2022-10-05T12:27:40.865Z,101332.19
2022-10-05T12:30:19.896Z,101331.34
2022-10-05T12:33:02.433Z,101335.56
2022-10-05T12:35:48.483Z,101334.75
2022-10-05T12:38:28.745Z,101330.28
2022-10-05T12:41:09.354Z,101330.38
2022-10-05T12:43:54.929Z,101327.75
2022-10-05T12:46:35.625Z,101336.34
2022-10-05T12:49:36.642Z,101327.94
2022-10-05T12:52:15.494Z,101319.47
2022-10-05T12:54:53.234Z,101322.09
2022-10-05T12:57:29.240Z,101326.06
2022-10-05T13:00:08.142Z,101321.13
2022-10-05T13:02:46.205Z,101329.94
2022-10-05T13:05:25.092Z,101332.31
2022-10-05T13:08:10.342Z,101331.50
2022-10-05T13:10:46.468Z,101325.09
2022-10-05T13:13:47.344Z,101321.66
2022-10-05T13:16:27.166Z,101309.19
2022-10-05T13:19:15.492Z,101321.03
2022-10-05T13:22:11.335Z,101324.31
2022-10-05T13:24:50.019Z,101314.88
2022-10-05T13:27:25.413Z,101324.03
2022-10-05T13:30:00.824Z,101304.50
2022-10-05T13:32:37.364Z,101305.97
2022-10-05T13:35:25.862Z,101299.84
2022-10-05T13:38:04.753Z,101300.50
2022-10-05T13:40:40.156Z,101300.53
2022-10-05T13:43:20.493Z,101300.78
2022-10-05T13:45:57.141Z,101299.13
2022-10-05T13:48:50.421Z,101291.44
2022-10-05T13:51:26.126Z,101291.59
2022-10-05T13:54:05.150Z,101288.09
2022-10-05T13:56:39.183Z,101281.88
2022-10-05T13:59:20.236Z,101285.69
2022-10-05T14:01:59.934Z,101285.75
2022-10-05T14:04:32.725Z,101285.75
2022-10-05T14:07:23.697Z,101286.03
2022-10-05T14:09:54.078Z,101279.78
2022-10-05T14:12:24.853Z,101293.06
2022-10-05T14:14:57.245Z,101290.78
2022-10-05T14:17:41.520Z,101296.22
2022-10-05T14:20:26.356Z,101295.47
2022-10-05T14:23:01.633Z,101299.31
2022-10-05T14:25:32.849Z,101299.53
2022-10-05T14:28:06.982Z,101305.84
2022-10-05T14:30:40.028Z,101305.91
2022-10-05T14:33:18.484Z,101303.38
2022-10-05T14:35:52.625Z,101299.09
2022-10-05T14:38:26.954Z,101293.91
2022-10-05T14:41:19.058Z,101296.72
2022-10-05T14:43:57.047Z,101293.31
2022-10-05T14:46:32.909Z,101296.94
2022-10-05T14:49:22.626Z,101299.69
2022-10-05T14:51:54.044Z,101296.25
2022-10-05T14:54:41.759Z,101302.59
2022-10-05T14:57:25.620Z,101296.41
2022-10-05T15:00:12.712Z,101298.25
2022-10-05T15:03:16.077Z,101303.69
2022-10-05T15:05:50.799Z,101300.28
2022-10-05T15:09:17.981Z,101303.94
2022-10-05T15:11:53.135Z,101306.84
2022-10-05T15:14:34.814Z,101305.13
2022-10-05T15:17:20.680Z,101298.03
2022-10-05T15:20:00.041Z,101304.31
2022-10-05T15:22:40.864Z,101298.19
2022-10-05T15:25:18.832Z,101294.78
2022-10-05T15:28:10.691Z,101297.56
2022-10-05T15:30:48.311Z,101294.97
2022-10-05T15:33:27.945Z,101294.16
2022-10-05T15:36:08.573Z,101292.50
2022-10-05T15:38:50.755Z,101281.81
2022-10-05T15:41:26.064Z,101288.09
2022-10-05T15:44:09.781Z,101290.88
2022-10-05T15:46:52.152Z,101297.19
2022-10-05T15:49:33.608Z,101288.41
2022-10-05T15:52:18.104Z,101286.66
2022-10-05T15:55:24.578Z,101281.44
2022-10-05T15:58:13.743Z,101281.44
2022-10-05T16:00:50.421Z,101280.59
2022-10-05T16:03:29.656Z,101287.81
2022-10-05T16:06:25.123Z,101284.34
2022-10-05T16:09:10.771Z,101291.50
2022-10-05T16:12:08.912Z,101289.88
2022-10-05T16:14:57.075Z,101284.63
2022-10-05T16:17:36.914Z,101287.41
2022-10-05T16:20:24.914Z,101291.03
2022-10-05T16:23:06.129Z,101290.16
2022-10-05T16:25:50.075Z,101292.03
2022-10-05T16:28:31.941Z,101293.88
2022-10-05T16:31:10.227Z,101297.50
2022-10-05T16:33:56.969Z,101286.91
2022-10-05T16:36:42.245Z,101290.56
2022-10-05T16:39:22.181Z,101286.16
2022-10-05T16:42:04.201Z,101285.31
2022-10-05T16:44:45.861Z,101285.44
2022-10-05T16:47:36.465Z,101286.38
2022-10-05T16:50:21.253Z,101277.59
2022-10-05T16:52:59.943Z,101289.19
2022-10-05T16:55:38.141Z,101284.00
2022-10-05T16:58:17.622Z,101284.06
2022-10-05T17:01:07.343Z,101284.97
2022-10-05T17:03:52.831Z,101277.94
2022-10-05T17:06:58.363Z,101286.88
2022-10-05T17:09:52.836Z,101274.50
2022-10-05T17:12:40.838Z,101280.75
2022-10-05T17:15:31.901Z,101286.09
2022-10-05T17:18:32.415Z,101281.72
2022-10-05T17:21:14.082Z,101279.03
2022-10-05T17:23:56.571Z,101281.69
2022-10-05T17:26:59.876Z,101285.25
2022-10-05T17:29:43.452Z,101287.91
2022-10-05T17:32:30.432Z,101282.59
2022-10-05T17:35:20.724Z,101290.63
2022-10-05T17:38:14.701Z,101284.44
2022-10-05T17:41:11.124Z,101285.34
2022-10-05T17:44:06.443Z,101291.59
2022-10-05T17:46:40.635Z,101288.97
2022-10-05T17:50:11.419Z,101292.56
2022-10-05T17:53:02.212Z,101285.50
2022-10-05T17:56:07.371Z,101292.69
2022-10-05T17:59:04.566Z,101291.00
2022-10-05T18:01:38.444Z,101284.81
2022-10-05T18:04:40.442Z,101278.66
2022-10-05T18:07:27.004Z,101277.78
2022-10-05T18:10:18.276Z,101279.59
2022-10-05T18:12:51.133Z,101276.97
2022-10-05T18:15:51.970Z,101276.09
2022-10-05T18:18:56.893Z,101281.50
2022-10-05T18:21:38.032Z,101280.72
2022-10-05T18:24:30.841Z,101275.44
2022-10-05T18:27:34.540Z,101281.69
2022-10-05T18:30:18.666Z,101279.97
2022-10-05T18:33:43.453Z,101280.00
2022-10-05T18:36:50.649Z,101280.06
2022-10-05T18:39:41.951Z,101277.47
2022-10-05T18:42:23.222Z,101273.91
2022-10-05T18:44:59.183Z,101273.00
2022-10-05T18:47:38.602Z,101275.66
2022-10-05T18:50:25.066Z,101277.47
2022-10-05T18:53:09.754Z,101273.94
2022-10-05T18:55:46.597Z,101274.81
2022-10-05T18:58:27.352Z,101276.59
2022-10-05T19:01:15.382Z,101266.88
2022-10-05T19:04:09.919Z,101271.31
2022-10-05T19:06:53.474Z,101275.75
2022-10-05T19:09:38.928Z,101276.66
2022-10-05T19:12:20.042Z,101274.91
2022-10-05T19:15:01.022Z,101267.91
2022-10-05T19:17:47.532Z,101272.34
2022-10-05T19:20:29.434Z,101267.06
2022-10-05T19:23:15.904Z,101272.34
2022-10-05T19:25:55.195Z,101269.72
2022-10-05T19:28:31.400Z,101264.38
2022-10-05T19:31:13.332Z,101263.47
2022-10-05T19:33:59.800Z,101258.22
2022-10-05T19:36:46.835Z,101256.47
2022-10-05T19:39:30.373Z,101259.19
2022-10-05T19:42:17.960Z,101262.78
2022-10-05T19:45:00.364Z,101264.56
2022-10-05T19:47:43.724Z,101256.56
2022-10-05T19:50:31.433Z,101257.47
2022-10-05T19:53:12.971Z,101254.78
2022-10-05T19:55:45.954Z,101255.69
2022-10-05T19:58:22.592Z,101257.44
2022-10-05T20:01:07.812Z,101257.41
2022-10-05T20:03:44.513Z,101260.06
2022-10-05T20:06:27.582Z,101266.22
2022-10-05T20:09:19.536Z,101259.16
2022-10-05T20:11:55.732Z,101260.06
2022-10-05T20:14:59.381Z,101256.53
2022-10-05T20:17:50.492Z,101262.72
2022-10-05T20:20:37.442Z,101261.81
2022-10-05T20:23:28.243Z,101210.59
2022-10-05T20:26:16.834Z,101249.50
2022-10-05T20:28:52.964Z,101255.63
2022-10-05T20:31:23.399Z,101252.97
2022-10-05T20:33:53.424Z,101260.03
2022-10-05T20:36:23.784Z,101249.47
2022-10-05T20:38:53.752Z,101252.13
2022-10-05T20:41:23.823Z,101245.09
2022-10-05T20:43:56.023Z,101237.16
2022-10-05T20:46:26.487Z,101232.75
2022-10-05T20:48:56.453Z,101236.25
2022-10-05T20:51:29.173Z,101227.44
2022-10-05T20:53:59.384Z,101233.63
2022-10-05T20:56:29.962Z,101228.25
2022-10-05T20:59:01.683Z,101223.78
2022-10-05T21:01:32.224Z,101230.84
2022-10-05T21:04:03.734Z,101228.91
2022-10-05T21:06:33.647Z,101229.72
2022-10-05T21:09:03.857Z,101228.81
2022-10-05T21:11:33.832Z,101225.28
2022-10-05T21:14:05.907Z,101223.50
2022-10-05T21:16:38.378Z,101226.06
2022-10-05T21:19:09.774Z,101222.53
2022-10-05T21:21:41.324Z,101222.56
2022-10-05T21:24:14.034Z,101226.94
2022-10-05T21:26:44.603Z,101221.59
2022-10-05T21:29:16.519Z,101220.69
2022-10-05T21:31:46.546Z,101224.22
2022-10-05T21:34:16.782Z,101215.44
2022-10-05T21:36:46.764Z,101223.34
2022-10-05T21:39:17.191Z,101226.81
2022-10-05T21:41:49.613Z,101222.38
2022-10-05T21:44:21.424Z,101221.47
2022-10-05T21:46:51.776Z,101219.66
2022-10-05T21:49:22.044Z,101219.66
2022-10-05T21:51:52.043Z,101211.75
2022-10-05T21:54:24.283Z,101216.09
2022-10-05T21:56:56.938Z,101211.66
2022-10-05T21:59:32.833Z,101209.97
2022-10-05T22:02:02.884Z,101213.44
2022-10-05T22:04:33.143Z,101213.56
2022-10-05T22:07:03.124Z,101214.56
2022-10-05T22:09:33.225Z,101204.19
2022-10-05T22:12:03.163Z,101208.75
2022-10-05T22:14:34.525Z,101206.97
2022-10-05T22:17:04.989Z,101208.81
2022-10-05T22:19:34.957Z,101206.19
2022-10-05T22:22:08.624Z,101210.59
2022-10-05T22:24:41.007Z,101203.56
2022-10-05T22:27:11.373Z,101197.44
2022-10-05T22:29:43.004Z,101191.19
2022-10-05T22:32:13.244Z,101197.38
2022-10-05T22:34:43.134Z,101195.56
2022-10-05T22:37:14.132Z,101203.50
2022-10-05T22:39:45.082Z,101200.88
2022-10-05T22:42:15.014Z,101202.59
2022-10-05T22:44:46.584Z,101200.81
2022-10-05T22:47:16.565Z,101202.59
2022-10-05T22:49:46.679Z,101200.81
2022-10-05T22:52:16.576Z,101206.94
2022-10-05T22:54:46.795Z,101208.69
2022-10-05T22:57:16.923Z,101195.47
2022-10-05T22:59:48.264Z,101202.53
2022-10-05T23:02:18.989Z,101200.84
2022-10-05T23:04:49.014Z,101210.53
2022-10-05T23:07:19.205Z,101204.34
2022-10-05T23:09:49.075Z,101210.53
2022-10-05T23:12:19.003Z,101215.81
2022-10-05T23:14:50.643Z,101210.53
2022-10-05T23:17:22.674Z,101212.28
2022-10-05T23:19:52.835Z,101208.78
2022-10-05T23:22:23.963Z,101214.94
2022-10-05T23:24:54.412Z,101204.38
2022-10-05T23:27:24.464Z,101200.88
2022-10-05T23:29:55.852Z,101198.19
2022-10-05T23:32:26.224Z,101200.88
2022-10-05T23:34:56.115Z,101203.53
2022-10-05T23:37:28.294Z,101205.28
2022-10-05T23:39:58.505Z,101200.88
2022-10-05T23:42:28.492Z,101205.28
2022-10-05T23:44:59.854Z,101204.38
2022-10-05T23:47:29.693Z,101200.84
2022-10-05T23:49:59.604Z,101202.63
2022-10-05T23:52:29.923Z,101200.00
2022-10-05T23:55:00.044Z,101203.53
2022-10-05T23:57:30.103Z,101196.47
